sensor_id;sensor_type;location;lat;lon;timestamp;P1;durP1;ratioP1;P2;durP2;ratioP2
41466;SDS011;27205;53.690;19.948;2022-07-18T00:03:32;4.50;;;2.60;;
41466;SDS011;27205;53.690;19.948;2022-07-18T00:08:35;3.50;;;2.10;;
41466;SDS011;27205;53.690;19.948;2022-07-18T00:13:39;6.20;;;3.00;;
41466;SDS011;27205;53.690;19.948;2022-07-18T00:18:42;3.70;;;2.20;;
41466;SDS011;27205;53.690;19.948;2022-07-18T00:23:46;4.80;;;2.30;;
41466;SDS011;27205;53.690;19.948;2022-07-18T00:28:49;4.40;;;2.50;;
41466;SDS011;27205;53.690;19.948;2022-07-18T00:33:53;3.80;;;2.70;;
41466;SDS011;27205;53.690;19.948;2022-07-18T00:38:57;2.70;;;1.90;;
41466;SDS011;27205;53.690;19.948;2022-07-18T00:44:01;3.20;;;2.00;;
41466;SDS011;27205;53.690;19.948;2022-07-18T00:49:05;4.60;;;3.00;;
41466;SDS011;27205;53.690;19.948;2022-07-18T00:54:08;6.10;;;3.10;;
41466;SDS011;27205;53.690;19.948;2022-07-18T00:59:11;3.80;;;2.60;;
41466;SDS011;27205;53.690;19.948;2022-07-18T01:04:19;4.40;;;2.90;;
41466;SDS011;27205;53.690;19.948;2022-07-18T01:09:25;5.70;;;3.20;;
41466;SDS011;27205;53.690;19.948;2022-07-18T01:14:28;4.00;;;2.20;;
41466;SDS011;27205;53.690;19.948;2022-07-18T01:19:33;3.20;;;2.20;;
41466;SDS011;27205;53.690;19.948;2022-07-18T01:24:39;2.90;;;2.30;;
41466;SDS011;27205;53.690;19.948;2022-07-18T01:29:44;2.50;;;2.00;;
41466;SDS011;27205;53.690;19.948;2022-07-18T01:39:52;4.50;;;2.70;;
41466;SDS011;27205;53.690;19.948;2022-07-18T01:44:55;4.70;;;2.40;;
41466;SDS011;27205;53.690;19.948;2022-07-18T01:49:58;3.70;;;2.20;;
41466;SDS011;27205;53.690;19.948;2022-07-18T01:55:02;4.70;;;1.90;;
41466;SDS011;27205;53.690;19.948;2022-07-18T02:00:08;3.70;;;2.50;;
41466;SDS011;27205;53.690;19.948;2022-07-18T02:05:13;4.10;;;2.50;;
41466;SDS011;27205;53.690;19.948;2022-07-18T02:10:18;2.90;;;2.00;;
41466;SDS011;27205;53.690;19.948;2022-07-18T02:15:23;4.10;;;2.30;;
41466;SDS011;27205;53.690;19.948;2022-07-18T02:20:27;5.00;;;2.30;;
41466;SDS011;27205;53.690;19.948;2022-07-18T02:31:12;2.80;;;2.20;;
41466;SDS011;27205;53.690;19.948;2022-07-18T02:36:15;4.20;;;2.30;;
41466;SDS011;27205;53.690;19.948;2022-07-18T02:41:19;5.70;;;2.80;;
41466;SDS011;27205;53.690;19.948;2022-07-18T02:46:22;4.00;;;2.40;;
41466;SDS011;27205;53.690;19.948;2022-07-18T02:51:26;4.30;;;2.20;;
41466;SDS011;27205;53.690;19.948;2022-07-18T02:56:29;2.30;;;1.90;;
41466;SDS011;27205;53.690;19.948;2022-07-18T03:01:33;3.70;;;2.00;;
41466;SDS011;27205;53.690;19.948;2022-07-18T03:06:37;9.70;;;3.20;;
41466;SDS011;27205;53.690;19.948;2022-07-18T03:11:41;3.00;;;2.00;;
41466;SDS011;27205;53.690;19.948;2022-07-18T03:16:44;3.10;;;2.20;;
41466;SDS011;27205;53.690;19.948;2022-07-18T03:21:48;3.30;;;2.40;;
41466;SDS011;27205;53.690;19.948;2022-07-18T03:26:51;3.80;;;2.40;;
41466;SDS011;27205;53.690;19.948;2022-07-18T03:31:55;4.00;;;2.00;;
41466;SDS011;27205;53.690;19.948;2022-07-18T03:36:58;5.00;;;2.90;;
41466;SDS011;27205;53.690;19.948;2022-07-18T03:42:01;4.70;;;2.90;;
41466;SDS011;27205;53.690;19.948;2022-07-18T03:47:05;2.80;;;2.20;;
41466;SDS011;27205;53.690;19.948;2022-07-18T03:52:08;3.50;;;2.40;;
41466;SDS011;27205;53.690;19.948;2022-07-18T03:57:12;3.70;;;2.80;;
41466;SDS011;27205;53.690;19.948;2022-07-18T04:02:15;7.80;;;6.40;;
41466;SDS011;27205;53.690;19.948;2022-07-18T04:07:18;8.40;;;6.70;;
41466;SDS011;27205;53.690;19.948;2022-07-18T04:12:22;8.60;;;6.80;;
41466;SDS011;27205;53.690;19.948;2022-07-18T04:17:25;17.30;;;14.90;;
41466;SDS011;27205;53.690;19.948;2022-07-18T04:22:28;17.90;;;15.80;;
41466;SDS011;27205;53.690;19.948;2022-07-18T04:27:32;14.30;;;12.30;;
41466;SDS011;27205;53.690;19.948;2022-07-18T04:32:35;10.50;;;9.30;;
41466;SDS011;27205;53.690;19.948;2022-07-18T04:37:39;5.70;;;5.10;;
41466;SDS011;27205;53.690;19.948;2022-07-18T04:42:43;5.10;;;4.40;;
41466;SDS011;27205;53.690;19.948;2022-07-18T04:47:50;4.10;;;3.00;;
41466;SDS011;27205;53.690;19.948;2022-07-18T04:52:54;3.00;;;2.30;;
41466;SDS011;27205;53.690;19.948;2022-07-18T04:57:58;4.20;;;3.00;;
41466;SDS011;27205;53.690;19.948;2022-07-18T05:03:01;4.90;;;2.60;;
41466;SDS011;27205;53.690;19.948;2022-07-18T05:08:05;2.70;;;2.20;;
41466;SDS011;27205;53.690;19.948;2022-07-18T05:13:08;3.80;;;2.60;;
41466;SDS011;27205;53.690;19.948;2022-07-18T05:18:12;3.30;;;2.20;;
41466;SDS011;27205;53.690;19.948;2022-07-18T05:23:15;3.20;;;2.70;;
41466;SDS011;27205;53.690;19.948;2022-07-18T05:28:20;3.40;;;2.80;;
41466;SDS011;27205;53.690;19.948;2022-07-18T05:33:23;4.00;;;3.60;;
41466;SDS011;27205;53.690;19.948;2022-07-18T05:38:27;4.20;;;3.10;;
41466;SDS011;27205;53.690;19.948;2022-07-18T05:43:30;5.20;;;3.40;;
41466;SDS011;27205;53.690;19.948;2022-07-18T05:48:33;4.20;;;2.60;;
41466;SDS011;27205;53.690;19.948;2022-07-18T05:53:37;6.50;;;2.90;;
41466;SDS011;27205;53.690;19.948;2022-07-18T05:58:40;2.90;;;2.60;;
41466;SDS011;27205;53.690;19.948;2022-07-18T06:03:48;3.20;;;2.20;;
41466;SDS011;27205;53.690;19.948;2022-07-18T06:08:52;4.30;;;2.40;;
41466;SDS011;27205;53.690;19.948;2022-07-18T06:13:56;3.00;;;2.50;;
41466;SDS011;27205;53.690;19.948;2022-07-18T06:18:59;4.10;;;2.30;;
41466;SDS011;27205;53.690;19.948;2022-07-18T06:24:03;2.80;;;2.50;;
41466;SDS011;27205;53.690;19.948;2022-07-18T06:29:06;2.70;;;2.30;;
41466;SDS011;27205;53.690;19.948;2022-07-18T06:34:10;3.90;;;2.80;;
41466;SDS011;27205;53.690;19.948;2022-07-18T06:39:13;3.50;;;2.50;;
41466;SDS011;27205;53.690;19.948;2022-07-18T06:44:19;4.20;;;2.50;;
41466;SDS011;27205;53.690;19.948;2022-07-18T06:49:23;3.30;;;2.10;;
41466;SDS011;27205;53.690;19.948;2022-07-18T06:54:28;3.10;;;2.30;;
41466;SDS011;27205;53.690;19.948;2022-07-18T06:59:31;4.80;;;2.00;;
41466;SDS011;27205;53.690;19.948;2022-07-18T07:04:35;4.10;;;2.50;;
41466;SDS011;27205;53.690;19.948;2022-07-18T08:03:34;3.10;;;2.00;;
41466;SDS011;27205;53.690;19.948;2022-07-18T08:08:36;3.00;;;2.10;;
41466;SDS011;27205;53.690;19.948;2022-07-18T08:13:38;1.80;;;1.70;;
41466;SDS011;27205;53.690;19.948;2022-07-18T08:18:40;2.80;;;2.50;;
41466;SDS011;27205;53.690;19.948;2022-07-18T08:23:42;2.00;;;1.60;;
41466;SDS011;27205;53.690;19.948;2022-07-18T08:28:46;2.80;;;2.20;;
41466;SDS011;27205;53.690;19.948;2022-07-18T08:33:49;2.20;;;2.10;;
41466;SDS011;27205;53.690;19.948;2022-07-18T08:38:51;5.60;;;2.60;;
41466;SDS011;27205;53.690;19.948;2022-07-18T08:43:53;2.30;;;2.00;;
41466;SDS011;27205;53.690;19.948;2022-07-18T08:48:57;3.00;;;2.50;;
41466;SDS011;27205;53.690;19.948;2022-07-18T08:53:59;2.30;;;1.90;;
41466;SDS011;27205;53.690;19.948;2022-07-18T08:59:11;3.20;;;1.80;;
41466;SDS011;27205;53.690;19.948;2022-07-18T09:04:31;2.00;;;1.70;;
41466;SDS011;27205;53.690;19.948;2022-07-18T09:09:37;2.00;;;1.50;;
41466;SDS011;27205;53.690;19.948;2022-07-18T09:14:43;2.60;;;2.00;;
41466;SDS011;27205;53.690;19.948;2022-07-18T09:25:21;2.30;;;1.50;;
41466;SDS011;27205;53.690;19.948;2022-07-18T09:30:33;3.00;;;1.80;;
41466;SDS011;27205;53.690;19.948;2022-07-18T09:35:42;2.20;;;1.60;;
41466;SDS011;27205;53.690;19.948;2022-07-18T09:40:48;2.30;;;1.80;;
41466;SDS011;27205;53.690;19.948;2022-07-18T09:45:55;2.50;;;2.20;;
41466;SDS011;27205;53.690;19.948;2022-07-18T09:51:03;1.70;;;1.50;;
41466;SDS011;27205;53.690;19.948;2022-07-18T09:56:11;2.40;;;1.50;;
41466;SDS011;27205;53.690;19.948;2022-07-18T10:01:15;1.80;;;1.40;;
41466;SDS011;27205;53.690;19.948;2022-07-18T10:06:19;2.60;;;2.10;;
41466;SDS011;27205;53.690;19.948;2022-07-18T10:11:23;2.50;;;1.60;;
41466;SDS011;27205;53.690;19.948;2022-07-18T10:16:27;2.70;;;2.00;;
41466;SDS011;27205;53.690;19.948;2022-07-18T10:21:31;4.80;;;2.50;;
41466;SDS011;27205;53.690;19.948;2022-07-18T10:26:35;2.10;;;1.80;;
41466;SDS011;27205;53.690;19.948;2022-07-18T10:31:39;2.10;;;1.60;;
41466;SDS011;27205;53.690;19.948;2022-07-18T10:47:16;2.00;;;1.70;;
41466;SDS011;27205;53.690;19.948;2022-07-18T10:57:34;4.10;;;1.70;;
41466;SDS011;27205;53.690;19.948;2022-07-18T11:02:43;1.50;;;1.40;;
41466;SDS011;27205;53.690;19.948;2022-07-18T11:18:33;1.40;;;1.10;;
41466;SDS011;27205;53.690;19.948;2022-07-18T11:24:00;1.80;;;1.00;;
41466;SDS011;27205;53.690;19.948;2022-07-18T11:29:13;1.60;;;1.10;;
41466;SDS011;27205;53.690;19.948;2022-07-18T11:34:18;1.20;;;1.10;;
41466;SDS011;27205;53.690;19.948;2022-07-18T11:39:39;1.30;;;1.20;;
41466;SDS011;27205;53.690;19.948;2022-07-18T11:44:43;2.00;;;1.60;;
41466;SDS011;27205;53.690;19.948;2022-07-18T11:49:53;1.70;;;1.60;;
41466;SDS011;27205;53.690;19.948;2022-07-18T11:54:59;2.80;;;1.50;;
41466;SDS011;27205;53.690;19.948;2022-07-18T12:00:14;1.90;;;1.60;;
41466;SDS011;27205;53.690;19.948;2022-07-18T12:05:28;2.00;;;1.90;;
41466;SDS011;27205;53.690;19.948;2022-07-18T12:10:33;1.50;;;1.30;;
41466;SDS011;27205;53.690;19.948;2022-07-18T12:15:39;1.50;;;1.20;;
41466;SDS011;27205;53.690;19.948;2022-07-18T12:20:43;1.40;;;1.20;;
41466;SDS011;27205;53.690;19.948;2022-07-18T12:25:46;1.50;;;1.40;;
41466;SDS011;27205;53.690;19.948;2022-07-18T12:30:51;1.90;;;1.60;;
41466;SDS011;27205;53.690;19.948;2022-07-18T12:36:02;1.30;;;1.20;;
41466;SDS011;27205;53.690;19.948;2022-07-18T12:41:07;2.70;;;1.60;;
41466;SDS011;27205;53.690;19.948;2022-07-18T12:46:10;1.20;;;1.10;;
41466;SDS011;27205;53.690;19.948;2022-07-18T12:51:14;2.50;;;1.50;;
41466;SDS011;27205;53.690;19.948;2022-07-18T12:56:17;1.50;;;1.30;;
41466;SDS011;27205;53.690;19.948;2022-07-18T13:01:21;3.10;;;1.80;;
41466;SDS011;27205;53.690;19.948;2022-07-18T13:06:25;2.40;;;2.20;;
41466;SDS011;27205;53.690;19.948;2022-07-18T13:11:29;2.60;;;2.00;;
41466;SDS011;27205;53.690;19.948;2022-07-18T13:16:34;1.50;;;1.40;;
41466;SDS011;27205;53.690;19.948;2022-07-18T13:21:37;1.50;;;1.40;;
41466;SDS011;27205;53.690;19.948;2022-07-18T13:26:41;1.80;;;1.70;;
41466;SDS011;27205;53.690;19.948;2022-07-18T13:31:45;2.70;;;1.70;;
41466;SDS011;27205;53.690;19.948;2022-07-18T13:36:51;2.00;;;1.60;;
41466;SDS011;27205;53.690;19.948;2022-07-18T13:41:56;2.20;;;1.60;;
41466;SDS011;27205;53.690;19.948;2022-07-18T13:46:59;2.00;;;1.60;;
41466;SDS011;27205;53.690;19.948;2022-07-18T13:52:03;1.70;;;1.30;;
41466;SDS011;27205;53.690;19.948;2022-07-18T13:57:12;1.60;;;1.50;;
41466;SDS011;27205;53.690;19.948;2022-07-18T14:02:16;2.30;;;1.60;;
41466;SDS011;27205;53.690;19.948;2022-07-18T14:07:20;1.60;;;1.50;;
41466;SDS011;27205;53.690;19.948;2022-07-18T14:12:24;1.70;;;1.60;;
41466;SDS011;27205;53.690;19.948;2022-07-18T14:17:27;2.20;;;1.50;;
41466;SDS011;27205;53.690;19.948;2022-07-18T14:22:33;1.40;;;1.30;;
41466;SDS011;27205;53.690;19.948;2022-07-18T14:27:37;1.90;;;1.40;;
41466;SDS011;27205;53.690;19.948;2022-07-18T14:32:41;1.40;;;1.30;;
41466;SDS011;27205;53.690;19.948;2022-07-18T14:37:44;2.00;;;1.20;;
41466;SDS011;27205;53.690;19.948;2022-07-18T14:42:48;2.50;;;1.60;;
41466;SDS011;27205;53.690;19.948;2022-07-18T14:47:53;3.20;;;1.50;;
41466;SDS011;27205;53.690;19.948;2022-07-18T14:52:56;1.40;;;1.20;;
41466;SDS011;27205;53.690;19.948;2022-07-18T14:58:00;1.70;;;1.60;;
41466;SDS011;27205;53.690;19.948;2022-07-18T15:03:05;1.30;;;1.20;;
41466;SDS011;27205;53.690;19.948;2022-07-18T15:08:29;3.90;;;1.60;;
41466;SDS011;27205;53.690;19.948;2022-07-18T15:13:32;2.80;;;2.00;;
41466;SDS011;27205;53.690;19.948;2022-07-18T15:18:36;2.30;;;1.70;;
41466;SDS011;27205;53.690;19.948;2022-07-18T15:23:40;1.80;;;1.70;;
41466;SDS011;27205;53.690;19.948;2022-07-18T15:28:43;2.80;;;1.70;;
41466;SDS011;27205;53.690;19.948;2022-07-18T15:33:47;1.40;;;1.30;;
41466;SDS011;27205;53.690;19.948;2022-07-18T15:38:50;1.60;;;1.50;;
41466;SDS011;27205;53.690;19.948;2022-07-18T15:43:54;1.20;;;1.00;;
41466;SDS011;27205;53.690;19.948;2022-07-18T15:48:58;2.10;;;1.10;;
41466;SDS011;27205;53.690;19.948;2022-07-18T15:54:04;3.10;;;1.20;;
41466;SDS011;27205;53.690;19.948;2022-07-18T15:59:09;1.60;;;1.40;;
41466;SDS011;27205;53.690;19.948;2022-07-18T16:04:13;3.70;;;1.70;;
41466;SDS011;27205;53.690;19.948;2022-07-18T16:09:16;1.60;;;1.50;;
41466;SDS011;27205;53.690;19.948;2022-07-18T16:14:20;2.10;;;1.50;;
41466;SDS011;27205;53.690;19.948;2022-07-18T16:19:24;2.50;;;1.50;;
41466;SDS011;27205;53.690;19.948;2022-07-18T16:24:28;1.30;;;1.20;;
41466;SDS011;27205;53.690;19.948;2022-07-18T16:29:31;1.20;;;1.10;;
41466;SDS011;27205;53.690;19.948;2022-07-18T16:34:35;1.70;;;1.60;;
41466;SDS011;27205;53.690;19.948;2022-07-18T16:39:39;2.70;;;2.50;;
41466;SDS011;27205;53.690;19.948;2022-07-18T16:44:42;1.90;;;1.60;;
41466;SDS011;27205;53.690;19.948;2022-07-18T16:49:46;1.90;;;1.80;;
41466;SDS011;27205;53.690;19.948;2022-07-18T16:54:50;5.10;;;2.60;;
41466;SDS011;27205;53.690;19.948;2022-07-18T16:59:56;4.60;;;2.50;;
41466;SDS011;27205;53.690;19.948;2022-07-18T17:05:08;2.80;;;2.60;;
41466;SDS011;27205;53.690;19.948;2022-07-18T17:10:12;3.30;;;2.50;;
41466;SDS011;27205;53.690;19.948;2022-07-18T17:15:17;2.00;;;1.80;;
41466;SDS011;27205;53.690;19.948;2022-07-18T17:20:24;2.50;;;2.30;;
41466;SDS011;27205;53.690;19.948;2022-07-18T17:25:28;3.40;;;2.30;;
41466;SDS011;27205;53.690;19.948;2022-07-18T17:35:36;3.30;;;3.00;;
41466;SDS011;27205;53.690;19.948;2022-07-18T17:40:40;3.90;;;3.60;;
41466;SDS011;27205;53.690;19.948;2022-07-18T17:45:44;2.30;;;2.10;;
41466;SDS011;27205;53.690;19.948;2022-07-18T17:55:52;3.00;;;2.40;;
41466;SDS011;27205;53.690;19.948;2022-07-18T18:05:59;2.70;;;2.50;;
41466;SDS011;27205;53.690;19.948;2022-07-18T18:11:02;3.90;;;2.60;;
41466;SDS011;27205;53.690;19.948;2022-07-18T18:16:07;2.50;;;2.30;;
41466;SDS011;27205;53.690;19.948;2022-07-18T18:21:11;3.10;;;2.60;;
41466;SDS011;27205;53.690;19.948;2022-07-18T18:26:14;3.20;;;3.00;;
41466;SDS011;27205;53.690;19.948;2022-07-18T18:31:18;2.70;;;2.50;;
41466;SDS011;27205;53.690;19.948;2022-07-18T18:36:21;3.90;;;2.80;;
41466;SDS011;27205;53.690;19.948;2022-07-18T18:41:44;2.70;;;2.50;;
41466;SDS011;27205;53.690;19.948;2022-07-18T18:46:48;2.80;;;2.60;;
41466;SDS011;27205;53.690;19.948;2022-07-18T18:56:55;5.30;;;3.90;;
41466;SDS011;27205;53.690;19.948;2022-07-18T19:01:59;7.80;;;5.20;;
41466;SDS011;27205;53.690;19.948;2022-07-18T19:07:02;6.20;;;5.50;;
41466;SDS011;27205;53.690;19.948;2022-07-18T19:12:05;7.60;;;6.90;;
41466;SDS011;27205;53.690;19.948;2022-07-18T19:23:22;18.50;;;16.70;;
41466;SDS011;27205;53.690;19.948;2022-07-18T19:28:26;20.10;;;18.00;;
41466;SDS011;27205;53.690;19.948;2022-07-18T19:33:30;17.90;;;16.10;;
41466;SDS011;27205;53.690;19.948;2022-07-18T19:38:34;13.90;;;12.60;;
41466;SDS011;27205;53.690;19.948;2022-07-18T19:43:39;10.70;;;9.60;;
41466;SDS011;27205;53.690;19.948;2022-07-18T19:48:42;11.50;;;8.50;;
41466;SDS011;27205;53.690;19.948;2022-07-18T19:53:47;9.30;;;8.40;;
41466;SDS011;27205;53.690;19.948;2022-07-18T19:58:50;8.90;;;8.10;;
41466;SDS011;27205;53.690;19.948;2022-07-18T20:08:57;9.60;;;8.60;;
41466;SDS011;27205;53.690;19.948;2022-07-18T20:14:01;8.90;;;8.00;;
41466;SDS011;27205;53.690;19.948;2022-07-18T20:24:09;5.80;;;5.30;;
41466;SDS011;27205;53.690;19.948;2022-07-18T20:29:12;6.90;;;6.40;;
41466;SDS011;27205;53.690;19.948;2022-07-18T20:34:15;8.40;;;7.20;;
41466;SDS011;27205;53.690;19.948;2022-07-18T20:39:19;8.00;;;7.30;;
41466;SDS011;27205;53.690;19.948;2022-07-18T20:44:22;8.40;;;7.70;;
41466;SDS011;27205;53.690;19.948;2022-07-18T20:49:26;8.70;;;7.90;;
41466;SDS011;27205;53.690;19.948;2022-07-18T20:54:30;8.60;;;7.40;;
41466;SDS011;27205;53.690;19.948;2022-07-18T20:59:53;7.50;;;6.80;;
41466;SDS011;27205;53.690;19.948;2022-07-18T21:04:56;6.10;;;5.50;;
41466;SDS011;27205;53.690;19.948;2022-07-18T21:15:04;7.20;;;5.20;;
41466;SDS011;27205;53.690;19.948;2022-07-18T21:20:20;7.60;;;5.60;;
41466;SDS011;27205;53.690;19.948;2022-07-18T21:25:25;6.30;;;5.80;;
41466;SDS011;27205;53.690;19.948;2022-07-18T21:30:29;7.00;;;5.80;;
41466;SDS011;27205;53.690;19.948;2022-07-18T21:35:34;6.30;;;5.60;;
41466;SDS011;27205;53.690;19.948;2022-07-18T21:40:39;6.10;;;4.90;;
41466;SDS011;27205;53.690;19.948;2022-07-18T21:45:42;7.10;;;6.10;;
41466;SDS011;27205;53.690;19.948;2022-07-18T21:50:45;4.80;;;4.40;;
41466;SDS011;27205;53.690;19.948;2022-07-18T21:55:49;6.00;;;5.20;;
41466;SDS011;27205;53.690;19.948;2022-07-18T22:00:52;5.80;;;4.80;;
41466;SDS011;27205;53.690;19.948;2022-07-18T22:05:56;7.20;;;4.50;;
41466;SDS011;27205;53.690;19.948;2022-07-18T22:10:59;4.50;;;4.10;;
41466;SDS011;27205;53.690;19.948;2022-07-18T22:16:04;5.60;;;4.30;;
41466;SDS011;27205;53.690;19.948;2022-07-18T22:21:08;8.70;;;3.40;;
41466;SDS011;27205;53.690;19.948;2022-07-18T22:26:12;7.20;;;3.70;;
41466;SDS011;27205;53.690;19.948;2022-07-18T22:31:15;5.20;;;3.50;;
41466;SDS011;27205;53.690;19.948;2022-07-18T22:36:19;7.60;;;4.10;;
41466;SDS011;27205;53.690;19.948;2022-07-18T22:41:23;3.70;;;3.40;;
41466;SDS011;27205;53.690;19.948;2022-07-18T22:46:27;5.80;;;3.40;;
41466;SDS011;27205;53.690;19.948;2022-07-18T22:51:30;3.70;;;3.10;;
41466;SDS011;27205;53.690;19.948;2022-07-18T22:56:34;6.70;;;4.30;;
41466;SDS011;27205;53.690;19.948;2022-07-18T23:01:38;3.60;;;2.80;;
41466;SDS011;27205;53.690;19.948;2022-07-18T23:06:41;7.10;;;3.80;;
41466;SDS011;27205;53.690;19.948;2022-07-18T23:11:44;3.50;;;3.20;;
41466;SDS011;27205;53.690;19.948;2022-07-18T23:16:48;5.80;;;4.00;;
41466;SDS011;27205;53.690;19.948;2022-07-18T23:21:52;4.90;;;3.10;;
41466;SDS011;27205;53.690;19.948;2022-07-18T23:26:55;8.60;;;3.70;;
41466;SDS011;27205;53.690;19.948;2022-07-18T23:31:59;5.40;;;3.20;;
41466;SDS011;27205;53.690;19.948;2022-07-18T23:37:02;6.40;;;3.60;;
41466;SDS011;27205;53.690;19.948;2022-07-18T23:42:09;6.20;;;3.20;;
41466;SDS011;27205;53.690;19.948;2022-07-18T23:47:13;4.80;;;3.50;;
41466;SDS011;27205;53.690;19.948;2022-07-18T23:52:16;5.10;;;3.40;;
41466;SDS011;27205;53.690;19.948;2022-07-18T23:57:21;6.20;;;3.50;;
